Time;durP1;ratioP1;P1;durP2;ratioP2;P2;SDS_P1;SDS_P2;PMS_P1;PMS_P2;Temp;Humidity;BMP_temperature;BMP_pressure;BME280_temperature;BME280_humidity;BME280_pressure;Samples;Min_cycle;Max_cycle;Signal;HPM_P1;HPM_P2
2022/11/21 00:00:56;;;;;;;50.23;30.43;;;3.70;99.90;;;;;;5038624;23;20646;-79
2022/11/21 00:03:23;;;;;;;49.40;29.93;;;3.70;99.90;;;;;;5033601;28;20232;-80
2022/11/21 00:05:50;;;;;;;47.10;28.33;;;3.80;99.90;;;;;;5033221;28;20234;-80
2022/11/21 00:08:19;;;;;;;46.07;27.80;;;3.80;99.90;;;;;;5032544;28;20206;-80
2022/11/21 00:10:47;;;;;;;43.70;26.70;;;3.80;99.90;;;;;;5033830;28;20194;-79
2022/11/21 00:13:15;;;;;;;50.67;28.67;;;3.80;99.90;;;;;;5026254;28;20208;-79
2022/11/21 00:15:43;;;;;;;47.00;27.67;;;3.80;99.90;;;;;;5014055;28;20626;-80
2022/11/21 00:18:11;;;;;;;46.57;28.33;;;3.80;99.90;;;;;;5014524;28;20298;-79
2022/11/21 00:20:39;;;;;;;39.93;25.03;;;3.80;99.90;;;;;;5014142;28;20220;-80
2022/11/21 00:23:06;;;;;;;49.73;29.40;;;3.80;99.90;;;;;;5026417;28;20213;-80
2022/11/21 00:25:33;;;;;;;50.77;29.00;;;3.80;99.90;;;;;;5033890;28;20198;-79
2022/11/21 00:27:59;;;;;;;50.40;29.87;;;3.80;99.90;;;;;;5034030;28;20215;-80
2022/11/21 00:30:26;;;;;;;50.90;29.93;;;3.80;99.90;;;;;;5018241;28;20212;-80
2022/11/21 00:32:53;;;;;;;47.57;28.90;;;3.70;99.90;;;;;;5018902;28;20506;-80
2022/11/21 00:35:21;;;;;;;49.60;29.20;;;3.70;99.90;;;;;;5033498;28;20202;-79
2022/11/21 00:37:49;;;;;;;43.57;27.73;;;3.70;99.90;;;;;;5023458;28;20204;-79
2022/11/21 00:40:17;;;;;;;49.47;30.37;;;3.80;99.90;;;;;;5014324;28;20215;-81
2022/11/21 00:42:44;;;;;;;48.00;28.40;;;3.70;99.90;;;;;;5015540;28;20207;-79
2022/11/21 00:45:11;;;;;;;46.53;28.83;;;3.70;99.90;;;;;;5038147;22;20721;-79
2022/11/21 00:47:38;;;;;;;43.60;27.57;;;3.70;99.90;;;;;;5033994;28;20202;-79
2022/11/21 00:50:06;;;;;;;40.47;25.37;;;3.60;99.90;;;;;;5017300;28;20532;-79
2022/11/21 00:52:34;;;;;;;43.73;27.37;;;3.60;99.90;;;;;;5012712;28;20199;-80
2022/11/21 00:55:01;;;;;;;43.90;25.10;;;3.60;99.90;;;;;;5014886;28;20608;-79
2022/11/21 00:57:28;;;;;;;42.77;26.03;;;3.60;99.90;;;;;;5013585;28;20211;-79
2022/11/21 00:59:55;;;;;;;43.33;27.67;;;3.60;99.90;;;;;;5013105;28;20266;-79
2022/11/21 01:02:22;;;;;;;45.53;28.30;;;3.60;99.90;;;;;;5013892;28;20201;-79
2022/11/21 01:04:49;;;;;;;45.97;28.57;;;3.60;99.90;;;;;;5022288;28;20203;-79
2022/11/21 01:07:16;;;;;;;47.90;29.10;;;3.60;99.90;;;;;;5032860;28;20199;-80
2022/11/21 01:09:44;;;;;;;46.87;30.47;;;3.60;99.90;;;;;;5020010;28;20491;-79
2022/11/21 01:12:10;;;;;;;48.87;29.13;;;3.60;99.90;;;;;;5013160;28;20543;-80
2022/11/21 01:14:37;;;;;;;48.57;29.40;;;3.60;99.90;;;;;;5019131;28;20202;-80
2022/11/21 01:17:04;;;;;;;46.13;29.00;;;3.60;99.90;;;;;;5032680;28;20217;-80
2022/11/21 01:19:31;;;;;;;46.53;28.70;;;3.60;99.90;;;;;;5022500;28;20668;-80
2022/11/21 01:21:58;;;;;;;49.97;29.50;;;3.60;99.90;;;;;;5012997;28;20229;-80
2022/11/21 01:24:25;;;;;;;47.77;28.23;;;3.60;99.90;;;;;;5013965;28;20206;-79
2022/11/21 01:26:54;;;;;;;46.13;28.03;;;3.50;99.90;;;;;;5013356;28;20203;-78
2022/11/21 01:29:20;;;;;;;45.47;28.37;;;3.50;99.90;;;;;;5012340;28;20714;-80
2022/11/21 01:31:48;;;;;;;41.70;27.47;;;3.50;99.90;;;;;;5013147;28;20366;-80
2022/11/21 01:34:16;;;;;;;44.87;27.60;;;3.50;99.90;;;;;;5012458;28;20326;-79
2022/11/21 01:36:43;;;;;;;42.73;26.83;;;3.50;99.90;;;;;;5014072;28;20223;-79
2022/11/21 01:39:11;;;;;;;47.37;27.07;;;3.50;99.90;;;;;;5012669;28;20199;-78
2022/11/21 01:41:40;;;;;;;41.57;25.80;;;3.50;99.90;;;;;;5030127;28;20661;-78
2022/11/21 01:44:18;;;;;;;46.23;27.00;;;3.50;99.90;;;;;;5021973;28;20289;-82
2022/11/21 01:46:45;;;;;;;46.23;29.53;;;3.50;99.90;;;;;;5012578;28;20246;-80
2022/11/21 01:49:15;;;;;;;50.17;28.30;;;3.50;99.90;;;;;;5011899;28;20657;-79
2022/11/21 01:51:47;;;;;;;47.03;28.13;;;3.50;99.90;;;;;;5026382;28;20587;-79
2022/11/21 01:54:18;;;;;;;48.10;27.47;;;3.40;99.90;;;;;;5032800;28;20190;-80
2022/11/21 01:56:49;;;;;;;52.50;28.97;;;3.50;99.90;;;;;;5015586;28;20198;-79
2022/11/21 01:59:22;;;;;;;52.13;28.47;;;3.50;99.90;;;;;;5012704;28;20499;-81
2022/11/21 02:01:54;;;;;;;49.83;28.33;;;3.50;99.90;;;;;;5012660;28;20209;-79
2022/11/21 02:04:22;;;;;;;48.93;28.47;;;3.50;99.90;;;;;;5012178;28;20203;-81
2022/11/21 02:06:49;;;;;;;47.50;27.57;;;3.50;99.90;;;;;;5021620;28;20220;-79
2022/11/21 02:09:17;;;;;;;48.67;28.63;;;3.40;99.90;;;;;;5031975;28;20205;-80
2022/11/21 02:11:49;;;;;;;48.97;26.93;;;3.40;99.90;;;;;;5032481;28;20205;-82
2022/11/21 02:14:18;;;;;;;47.50;26.83;;;3.40;99.90;;;;;;5023664;28;20199;-80
2022/11/21 02:16:45;;;;;;;48.80;28.63;;;3.40;99.90;;;;;;5011885;28;20210;-83
2022/11/21 02:19:20;;;;;;;50.67;29.07;;;3.40;99.90;;;;;;5014402;28;20214;-84
2022/11/21 02:21:52;;;;;;;54.13;29.93;;;3.40;99.90;;;;;;5018435;28;20207;-84
2022/11/21 02:24:28;;;;;;;51.53;28.77;;;3.40;99.90;;;;;;5017905;28;20469;-83
2022/11/21 02:26:58;;;;;;;48.00;27.63;;;3.30;99.90;;;;;;5027633;28;20206;-83
2022/11/21 02:29:25;;;;;;;44.07;26.37;;;3.30;99.90;;;;;;5028310;28;20211;-82
2022/11/21 02:31:52;;;;;;;46.53;25.30;;;3.30;99.90;;;;;;5018758;28;20508;-84
2022/11/21 02:34:19;;;;;;;50.37;28.10;;;3.40;99.90;;;;;;5037197;28;20260;-83
2022/11/21 02:36:47;;;;;;;44.50;27.50;;;3.30;99.90;;;;;;5028446;28;20251;-84
2022/11/21 02:39:19;;;;;;;45.77;26.80;;;3.30;99.90;;;;;;5017146;28;20298;-82
2022/11/21 02:41:59;;;;;;;46.17;27.63;;;3.40;99.90;;;;;;5016400;28;20217;-82
2022/11/21 02:44:32;;;;;;;41.63;25.67;;;3.30;99.90;;;;;;5017260;28;20614;-80
2022/11/21 02:46:58;;;;;;;38.87;24.60;;;3.30;99.90;;;;;;5016327;28;20290;-80
2022/11/21 02:49:34;;;;;;;41.53;25.60;;;3.30;99.90;;;;;;5016081;28;20223;-78
2022/11/21 02:52:01;;;;;;;41.23;26.57;;;3.30;99.90;;;;;;5015654;28;20202;-79
2022/11/21 02:54:28;;;;;;;34.77;22.13;;;3.40;99.90;;;;;;5015652;28;20199;-81
2022/11/21 02:56:56;;;;;;;42.63;24.93;;;3.40;99.90;;;;;;5015855;28;20505;-78
2022/11/21 02:59:24;;;;;;;39.30;23.93;;;3.30;99.90;;;;;;5040872;28;20289;-82
2022/11/21 03:01:51;;;;;;;43.03;26.00;;;3.30;99.90;;;;;;5042839;28;20233;-80
2022/11/21 03:04:18;;;;;;;40.33;25.57;;;3.30;99.90;;;;;;5035749;28;20199;-81
2022/11/21 03:06:45;;;;;;;42.23;25.10;;;3.30;99.90;;;;;;5016599;28;20302;-81
2022/11/21 03:09:11;;;;;;;40.17;24.73;;;3.30;99.90;;;;;;5023915;28;20199;-82
2022/11/21 03:11:38;;;;;;;45.63;26.20;;;3.30;99.90;;;;;;5035553;28;20199;-82
2022/11/21 03:14:05;;;;;;;44.13;27.10;;;3.30;99.90;;;;;;5035184;28;20206;-79
2022/11/21 03:16:33;;;;;;;43.33;26.67;;;3.30;99.90;;;;;;5033338;28;20201;-79
2022/11/21 03:19:00;;;;;;;48.63;28.30;;;3.40;99.90;;;;;;5015912;28;20207;-80
2022/11/21 03:21:27;;;;;;;50.73;28.13;;;3.30;99.90;;;;;;5025445;28;20218;-82
2022/11/21 03:23:54;;;;;;;45.80;27.50;;;3.30;99.90;;;;;;5034354;28;20207;-82
2022/11/21 03:26:21;;;;;;;48.83;27.47;;;3.30;99.90;;;;;;5015602;28;20512;-83
2022/11/21 03:28:48;;;;;;;51.87;28.83;;;3.30;99.90;;;;;;5015423;28;20210;-81
2022/11/21 03:31:14;;;;;;;55.93;29.97;;;3.30;99.90;;;;;;5014727;28;20225;-79
2022/11/21 03:33:43;;;;;;;60.93;32.47;;;3.30;99.90;;;;;;5014187;28;20209;-81
2022/11/21 03:36:09;;;;;;;69.53;34.17;;;3.30;99.90;;;;;;5029612;28;20218;-79
2022/11/21 03:38:36;;;;;;;71.40;33.23;;;3.30;99.90;;;;;;5015932;28;20199;-79
2022/11/21 03:41:27;;;;;;;69.20;34.80;;;3.30;99.90;;;;;;5014282;28;20623;-79
2022/11/21 03:43:52;;;;;;;70.17;34.17;;;3.30;99.90;;;;;;5017241;28;20265;-80
2022/11/21 03:46:19;;;;;;;72.47;33.27;;;3.30;99.90;;;;;;5034213;28;20250;-79
2022/11/21 03:48:47;;;;;;;70.47;34.63;;;3.30;99.90;;;;;;5029063;28;20227;-80
2022/11/21 03:51:14;;;;;;;79.10;37.13;;;3.40;99.90;;;;;;5015320;28;20213;-79
2022/11/21 03:53:40;;;;;;;75.57;36.43;;;3.40;99.90;;;;;;5014669;28;20196;-79
2022/11/21 03:56:07;;;;;;;76.73;37.23;;;3.40;99.90;;;;;;5014265;28;20203;-80
2022/11/21 03:58:34;;;;;;;78.63;37.30;;;3.40;99.90;;;;;;5038192;22;20239;-80
2022/11/21 04:01:01;;;;;;;74.37;35.60;;;3.40;99.90;;;;;;5018845;28;20658;-79
2022/11/21 04:03:28;;;;;;;76.07;36.67;;;3.50;99.90;;;;;;5014030;28;20199;-80
2022/11/21 04:05:56;;;;;;;73.83;35.83;;;3.50;99.90;;;;;;5019360;28;20207;-79
2022/11/21 04:08:23;;;;;;;71.03;35.03;;;3.50;99.90;;;;;;5033648;28;20202;-79
2022/11/21 04:10:51;;;;;;;89.30;40.10;;;3.50;99.90;;;;;;5013670;28;20294;-80
2022/11/21 04:13:19;;;;;;;79.47;38.27;;;3.50;99.90;;;;;;5014026;28;20199;-79
2022/11/21 04:15:46;;;;;;;79.60;37.57;;;3.50;99.90;;;;;;5014549;28;20298;-79
2022/11/21 04:18:13;;;;;;;81.67;37.93;;;3.50;99.90;;;;;;5033743;28;20206;-81
2022/11/21 04:20:40;;;;;;;75.77;36.90;;;3.60;99.90;;;;;;5034991;28;20199;-83
2022/11/21 04:23:09;;;;;;;70.17;35.40;;;3.60;99.90;;;;;;5028886;28;20213;-80
2022/11/21 04:25:36;;;;;;;63.57;32.73;;;3.60;99.90;;;;;;5015549;28;20205;-83
2022/11/21 04:28:04;;;;;;;76.10;35.97;;;3.60;99.90;;;;;;5016345;28;20317;-82
2022/11/21 04:30:33;;;;;;;71.90;34.33;;;3.70;99.90;;;;;;5014143;28;20483;-80
2022/11/21 04:33:00;;;;;;;69.57;34.60;;;3.70;99.90;;;;;;5014457;28;20203;-80
2022/11/21 04:35:27;;;;;;;71.67;35.70;;;3.70;99.90;;;;;;5014683;28;20211;-83
2022/11/21 04:37:54;;;;;;;75.80;36.57;;;3.70;99.90;;;;;;5014225;28;20515;-83
2022/11/21 04:40:22;;;;;;;75.10;36.00;;;3.70;99.90;;;;;;5013902;28;20200;-81
2022/11/21 04:42:49;;;;;;;73.00;35.53;;;3.70;99.90;;;;;;5014635;28;20624;-81
2022/11/21 04:45:17;;;;;;;74.50;36.80;;;3.70;99.90;;;;;;5013634;28;20203;-80
2022/11/21 04:47:45;;;;;;;77.50;35.63;;;3.70;99.90;;;;;;5013297;28;20207;-78
2022/11/21 04:50:15;;;;;;;76.00;36.47;;;3.70;99.90;;;;;;4994184;28;20204;-80
2022/11/21 04:52:42;;;;;;;70.47;34.70;;;3.70;99.90;;;;;;4996720;28;20211;-78
2022/11/21 04:55:09;;;;;;;65.53;33.00;;;3.70;99.90;;;;;;5013612;28;20203;-83
2022/11/21 04:57:38;;;;;;;66.10;32.47;;;3.70;99.90;;;;;;5013445;28;20243;-82
2022/11/21 05:00:06;;;;;;;69.53;32.97;;;3.70;99.90;;;;;;5012821;28;20207;-79
2022/11/21 05:02:33;;;;;;;65.50;32.10;;;3.70;99.90;;;;;;5001437;28;20239;-80
2022/11/21 05:05:00;;;;;;;62.60;31.03;;;3.70;99.90;;;;;;4995082;28;20270;-79
2022/11/21 05:07:27;;;;;;;61.43;29.53;;;3.70;99.90;;;;;;4993644;28;20235;-79
2022/11/21 05:09:54;;;;;;;58.63;29.63;;;3.70;99.90;;;;;;4993852;28;20208;-80
2022/11/21 05:15:07;;;;;;;69.37;30.70;;;3.60;99.90;;;;;;4993647;28;20289;-79
2022/11/21 05:17:34;;;;;;;62.37;30.17;;;3.60;99.90;;;;;;4993263;28;20222;-79
2022/11/21 05:20:01;;;;;;;61.83;30.27;;;3.50;99.90;;;;;;4994495;28;20218;-80
2022/11/21 05:22:28;;;;;;;65.87;31.73;;;3.50;99.90;;;;;;4993496;28;20311;-80
2022/11/21 05:24:55;;;;;;;59.93;29.80;;;3.50;99.90;;;;;;4993852;28;20211;-80
2022/11/21 05:27:21;;;;;;;59.50;29.93;;;3.50;99.90;;;;;;4993009;28;20608;-82
2022/11/21 05:29:48;;;;;;;54.50;27.80;;;3.40;99.90;;;;;;4993695;28;20203;-83
2022/11/21 05:32:16;;;;;;;62.37;29.80;;;3.40;99.90;;;;;;4994045;28;20199;-80
2022/11/21 05:34:43;;;;;;;83.50;31.00;;;3.40;99.90;;;;;;4993109;28;20214;-80
2022/11/21 05:37:10;;;;;;;60.93;29.43;;;3.40;99.90;;;;;;4994092;28;20200;-82
2022/11/21 05:39:37;;;;;;;67.27;29.70;;;3.40;99.90;;;;;;5000028;28;20205;-82
2022/11/21 05:42:04;;;;;;;65.50;29.70;;;3.40;99.90;;;;;;5012166;28;20223;-79
2022/11/21 05:44:30;;;;;;;50.33;28.37;;;3.40;99.90;;;;;;5010500;28;20209;-78
2022/11/21 05:46:57;;;;;;;64.30;28.57;;;3.40;99.90;;;;;;4993436;28;20204;-78
2022/11/21 05:49:25;;;;;;;101.00;32.10;;;3.40;99.90;;;;;;4992275;28;20773;-79
2022/11/21 05:51:52;;;;;;;61.83;29.53;;;3.40;99.90;;;;;;4992985;28;20600;-81
2022/11/21 05:54:19;;;;;;;67.30;30.40;;;3.40;99.90;;;;;;4993004;28;20592;-79
2022/11/21 05:56:46;;;;;;;71.93;30.90;;;3.40;99.90;;;;;;4993351;28;20486;-79
2022/11/21 05:59:13;;;;;;;69.40;31.13;;;3.40;99.90;;;;;;4992618;28;20502;-79
2022/11/21 06:04:25;;;;;;;66.10;30.57;;;3.40;99.90;;;;;;4992604;28;20290;-79
2022/11/21 06:06:52;;;;;;;62.27;29.43;;;3.40;99.90;;;;;;4993038;28;20206;-80
2022/11/21 06:09:19;;;;;;;65.37;30.83;;;3.40;99.90;;;;;;4992031;28;20295;-79
2022/11/21 06:11:45;;;;;;;64.47;31.17;;;3.40;99.90;;;;;;4993206;28;20200;-80
2022/11/21 06:14:12;;;;;;;73.00;31.90;;;3.40;99.90;;;;;;5010145;28;20203;-79
2022/11/21 06:16:39;;;;;;;64.60;32.30;;;3.50;99.90;;;;;;5008132;28;20203;-80
2022/11/21 06:19:06;;;;;;;67.77;30.47;;;3.50;99.90;;;;;;4992195;28;20291;-80
2022/11/21 06:21:36;;;;;;;71.20;32.90;;;3.50;99.90;;;;;;4992407;28;20219;-80
2022/11/21 06:24:03;;;;;;;66.77;30.33;;;3.50;99.90;;;;;;4992397;28;20204;-80
2022/11/21 06:26:29;;;;;;;65.27;30.20;;;3.50;99.90;;;;;;4992656;28;20210;-81
2022/11/21 06:28:56;;;;;;;68.07;31.67;;;3.50;99.90;;;;;;4992842;28;20218;-80
2022/11/21 06:31:25;;;;;;;68.03;32.30;;;3.50;99.90;;;;;;4992779;28;20292;-79
2022/11/21 06:33:53;;;;;;;62.30;31.70;;;3.50;99.90;;;;;;4993181;28;20192;-80
2022/11/21 06:36:20;;;;;;;69.73;32.67;;;3.50;99.90;;;;;;4992471;28;20219;-80
2022/11/21 06:38:49;;;;;;;64.70;30.23;;;3.60;99.90;;;;;;4993436;28;20231;-82
2022/11/21 06:41:17;;;;;;;65.43;30.70;;;3.60;99.90;;;;;;4998381;28;20215;-83
2022/11/21 06:43:45;;;;;;;70.07;31.23;;;3.60;99.90;;;;;;5013250;28;20235;-83
2022/11/21 06:46:13;;;;;;;74.03;32.53;;;3.60;99.90;;;;;;5013374;28;20588;-82
2022/11/21 06:48:40;;;;;;;69.10;32.83;;;3.60;99.90;;;;;;5013048;28;20323;-81
2022/11/21 06:51:10;;;;;;;70.30;31.87;;;3.50;99.90;;;;;;5012960;28;20759;-83
2022/11/21 06:53:37;;;;;;;72.23;31.30;;;3.50;99.90;;;;;;5013802;28;20196;-83
2022/11/21 06:56:06;;;;;;;71.07;32.60;;;3.60;99.90;;;;;;5010103;28;20202;-84
2022/11/21 06:58:32;;;;;;;59.80;30.17;;;3.60;99.90;;;;;;5012786;28;20875;-82
2022/11/21 07:01:04;;;;;;;54.90;29.23;;;3.60;99.90;;;;;;5012986;28;20214;-83
2022/11/21 07:03:31;;;;;;;51.33;27.13;;;3.60;99.90;;;;;;5013403;28;20230;-83
2022/11/21 07:06:00;;;;;;;56.67;28.20;;;3.60;99.90;;;;;;4997784;28;20879;-84
2022/11/21 07:08:27;;;;;;;55.67;29.17;;;3.60;99.90;;;;;;4996802;28;20279;-83
2022/11/21 07:10:54;;;;;;;53.93;27.20;;;3.60;99.90;;;;;;4997056;28;20539;-83
2022/11/21 07:13:21;;;;;;;53.17;27.53;;;3.60;99.90;;;;;;5012049;28;20210;-83
2022/11/21 07:15:50;;;;;;;51.03;28.30;;;3.70;99.90;;;;;;5016706;28;20204;-81
2022/11/21 07:18:16;;;;;;;50.63;26.77;;;3.70;99.90;;;;;;5016782;28;20209;-83
2022/11/21 07:20:44;;;;;;;44.87;26.13;;;3.70;99.90;;;;;;5003623;28;20208;-83
2022/11/21 07:23:11;;;;;;;53.87;27.17;;;3.70;99.90;;;;;;5013429;28;20215;-82
2022/11/21 07:25:39;;;;;;;46.23;26.07;;;3.70;99.90;;;;;;5016243;28;20291;-83
2022/11/21 07:28:07;;;;;;;51.10;27.43;;;3.70;99.90;;;;;;5015438;28;20213;-82
2022/11/21 07:30:36;;;;;;;46.53;25.00;;;3.70;99.90;;;;;;5016298;28;20199;-84
2022/11/21 07:33:05;;;;;;;45.90;25.97;;;3.70;99.90;;;;;;5016032;28;20202;-83
2022/11/21 07:35:33;;;;;;;49.37;27.50;;;3.70;99.90;;;;;;5008852;28;20597;-83
2022/11/21 07:38:00;;;;;;;52.50;27.43;;;3.80;99.90;;;;;;4996818;28;20204;-83
2022/11/21 07:40:27;;;;;;;47.40;26.90;;;3.80;99.90;;;;;;4995780;28;20204;-82
2022/11/21 07:43:00;;;;;;;50.47;26.43;;;3.80;99.90;;;;;;5000943;28;20246;-83
2022/11/21 07:45:27;;;;;;;47.13;26.50;;;3.80;99.90;;;;;;5015833;28;20599;-83
2022/11/21 07:47:58;;;;;;;45.50;27.30;;;3.80;99.90;;;;;;5014596;28;20777;-82
2022/11/21 07:50:26;;;;;;;51.57;27.70;;;3.80;99.90;;;;;;5015465;28;20207;-80
2022/11/21 07:52:57;;;;;;;48.17;27.00;;;3.90;99.90;;;;;;5011331;28;20221;-79
2022/11/21 07:55:24;;;;;;;50.37;27.13;;;3.90;99.90;;;;;;5005653;28;20199;-80
2022/11/21 07:57:58;;;;;;;50.63;29.23;;;3.90;99.90;;;;;;5007309;28;20224;-81
2022/11/21 08:00:25;;;;;;;49.13;26.67;;;3.90;99.90;;;;;;5006227;28;20195;-81
2022/11/21 08:02:52;;;;;;;47.10;27.07;;;3.90;99.90;;;;;;5008865;28;20302;-82
2022/11/21 08:05:21;;;;;;;50.00;27.50;;;4.00;99.90;;;;;;5004011;28;20200;-81
2022/11/21 08:07:48;;;;;;;47.80;27.23;;;4.00;99.90;;;;;;5004347;28;20219;-82
2022/11/21 08:10:16;;;;;;;47.63;26.93;;;4.00;99.90;;;;;;5009183;28;20226;-82
2022/11/21 08:12:46;;;;;;;50.00;26.93;;;4.00;99.90;;;;;;5015138;28;20506;-83
2022/11/21 08:15:13;;;;;;;48.73;25.67;;;4.00;99.90;;;;;;5008418;28;20246;-81
2022/11/21 08:17:40;;;;;;;50.37;28.03;;;4.10;99.90;;;;;;5011968;28;20211;-83
2022/11/21 08:20:08;;;;;;;46.63;27.17;;;4.10;99.90;;;;;;5007816;28;20255;-81
2022/11/21 08:22:40;;;;;;;54.23;28.47;;;4.10;99.90;;;;;;5014313;28;20223;-82
2022/11/21 08:25:09;;;;;;;46.97;27.20;;;4.20;99.90;;;;;;5008565;28;20206;-83
2022/11/21 08:27:37;;;;;;;53.30;28.97;;;4.20;99.90;;;;;;5007052;28;20209;-81
2022/11/21 08:30:07;;;;;;;51.77;28.30;;;4.20;99.90;;;;;;5016743;28;20207;-83
2022/11/21 08:32:34;;;;;;;56.07;30.33;;;4.30;99.90;;;;;;4995560;28;20227;-82
2022/11/21 08:35:01;;;;;;;51.67;28.53;;;4.20;99.90;;;;;;4995068;28;20637;-80
2022/11/21 08:37:29;;;;;;;53.00;27.83;;;4.30;99.90;;;;;;4994197;28;20735;-79
2022/11/21 08:39:59;;;;;;;60.77;29.93;;;4.40;99.90;;;;;;4994293;28;20772;-82
2022/11/21 08:42:26;;;;;;;56.53;30.00;;;4.40;99.90;;;;;;4994476;28;20274;-79
2022/11/21 08:44:53;;;;;;;57.03;30.23;;;4.40;99.90;;;;;;4994888;28;20231;-79
2022/11/21 08:47:20;;;;;;;56.70;29.37;;;4.40;99.90;;;;;;5023443;28;20202;-80
2022/11/21 08:49:47;;;;;;;56.87;31.97;;;4.40;99.90;;;;;;5013140;28;20223;-79
2022/11/21 08:52:16;;;;;;;50.87;27.33;;;4.50;99.90;;;;;;4996553;28;20695;-80
2022/11/21 08:54:44;;;;;;;48.10;27.50;;;4.40;99.90;;;;;;5007913;28;20711;-80
2022/11/21 08:57:12;;;;;;;55.00;28.97;;;4.50;99.90;;;;;;5012771;28;20231;-80
2022/11/21 08:59:39;;;;;;;51.57;29.43;;;4.50;99.90;;;;;;4998352;28;20593;-80
2022/11/21 09:02:06;;;;;;;59.27;30.87;;;4.60;99.90;;;;;;5004959;28;20202;-81
2022/11/21 09:04:33;;;;;;;51.90;29.37;;;4.60;99.90;;;;;;5000941;28;20314;-81
2022/11/21 09:07:00;;;;;;;57.57;30.03;;;4.70;99.90;;;;;;5001688;28;20285;-80
2022/11/21 09:09:27;;;;;;;52.77;28.40;;;4.70;99.90;;;;;;5012625;28;20613;-80
2022/11/21 09:11:54;;;;;;;53.80;27.73;;;4.80;99.90;;;;;;4996960;28;20199;-79
2022/11/21 09:19:55;;;;;;;52.53;28.13;;;4.80;99.90;;;;;;4993473;28;20230;-79
2022/11/21 09:22:23;;;;;;;61.17;30.93;;;4.80;99.90;;;;;;4995899;28;20201;-79
2022/11/21 09:24:50;;;;;;;55.53;29.37;;;4.90;99.90;;;;;;5012339;28;20206;-79
2022/11/21 09:27:17;;;;;;;63.07;30.60;;;4.90;99.90;;;;;;4997976;28;20199;-77
2022/11/21 09:29:45;;;;;;;71.40;34.33;;;4.90;99.90;;;;;;4998614;28;20288;-85
2022/11/21 09:32:12;;;;;;;65.00;31.40;;;4.90;99.90;;;;;;4996834;28;20195;-78
2022/11/21 09:34:39;;;;;;;60.33;31.57;;;4.90;99.90;;;;;;4998201;28;20207;-79
2022/11/21 09:37:06;;;;;;;74.57;32.73;;;5.00;99.90;;;;;;5030600;28;20840;-78
2022/11/21 09:39:33;;;;;;;78.37;32.70;;;5.00;99.90;;;;;;5009817;28;20302;-77
2022/11/21 09:42:16;;;;;;;59.83;31.23;;;5.00;99.90;;;;;;5012504;28;20206;-80
2022/11/21 09:45:08;;;;;;;76.57;30.93;;;5.00;99.90;;;;;;4992771;28;20184;-81
2022/11/21 09:47:38;;;;;;;58.80;28.53;;;5.00;99.90;;;;;;4994765;28;20834;-77
2022/11/21 09:50:24;;;;;;;80.43;30.93;;;5.00;99.90;;;;;;5011014;28;20309;-78
2022/11/21 09:52:56;;;;;;;81.77;30.73;;;5.10;99.90;;;;;;5008057;28;20199;-79
2022/11/21 09:55:31;;;;;;;60.17;30.60;;;5.10;99.90;;;;;;4992256;28;20223;-79
2022/11/21 09:58:02;;;;;;;75.13;28.93;;;5.10;99.90;;;;;;5004114;28;20743;-79
2022/11/21 10:00:31;;;;;;;61.10;29.93;;;5.20;99.90;;;;;;4992072;28;20212;-79
2022/11/21 10:03:00;;;;;;;80.07;31.40;;;5.20;99.90;;;;;;5011557;28;20234;-79
2022/11/21 10:05:36;;;;;;;85.13;32.93;;;5.20;99.90;;;;;;5002200;28;20643;-78
2022/11/21 10:08:16;;;;;;;74.37;30.57;;;5.20;99.90;;;;;;5001197;28;20206;-79
2022/11/21 10:10:54;;;;;;;60.03;29.20;;;5.20;99.90;;;;;;5010758;28;20584;-78
2022/11/21 10:13:38;;;;;;;67.43;32.17;;;5.30;99.90;;;;;;5012788;28;20194;-81
2022/11/21 10:16:14;;;;;;;70.33;33.23;;;5.40;99.90;;;;;;5012104;28;20282;-81
2022/11/21 10:19:09;;;;;;;58.80;32.40;;;5.40;99.90;;;;;;4995423;28;20212;-79
2022/11/21 10:21:55;;;;;;;69.47;31.50;;;5.50;99.90;;;;;;4993937;28;20204;-79
2022/11/21 10:24:36;;;;;;;67.40;33.67;;;5.50;99.90;;;;;;4992437;28;20204;-79
2022/11/21 10:27:10;;;;;;;65.60;29.90;;;5.50;99.90;;;;;;5017497;28;20255;-79
2022/11/21 10:29:41;;;;;;;57.80;30.03;;;5.60;99.90;;;;;;4999505;28;20187;-80
2022/11/21 10:32:19;;;;;;;52.40;27.97;;;5.70;99.90;;;;;;5003124;28;20786;-80
2022/11/21 10:34:48;;;;;;;51.87;27.20;;;5.70;99.90;;;;;;5003659;28;20280;-80
2022/11/21 10:37:27;;;;;;;62.47;30.67;;;5.70;99.90;;;;;;5002579;28;20540;-79
2022/11/21 10:39:56;;;;;;;59.23;27.87;;;5.80;99.90;;;;;;5000248;28;20195;-79
2022/11/21 10:42:30;;;;;;;54.70;29.03;;;5.80;99.90;;;;;;5000198;28;20200;-80
2022/11/21 10:45:18;;;;;;;63.30;30.17;;;5.80;99.90;;;;;;5006762;28;20203;-81
2022/11/21 10:47:49;;;;;;;47.87;26.67;;;5.80;99.90;;;;;;5003956;28;20714;-81
2022/11/21 10:50:34;;;;;;;57.93;26.37;;;5.80;99.90;;;;;;5011287;28;20293;-83
2022/11/21 10:56:04;;;;;;;51.47;27.57;;;5.90;99.90;;;;;;5014535;28;20198;-81
2022/11/21 10:58:40;;;;;;;49.10;25.63;;;5.90;99.90;;;;;;5014045;28;20249;-81
2022/11/21 11:01:18;;;;;;;48.17;24.87;;;5.90;99.90;;;;;;5015097;28;20187;-79
2022/11/21 11:03:46;;;;;;;45.87;25.97;;;5.90;99.90;;;;;;5001007;28;20215;-81
2022/11/21 11:06:13;;;;;;;50.57;25.73;;;6.00;99.90;;;;;;5000881;28;20215;-82
2022/11/21 11:08:51;;;;;;;50.80;26.07;;;6.00;99.90;;;;;;5004474;28;20204;-79
2022/11/21 11:11:22;;;;;;;51.77;24.20;;;6.00;99.90;;;;;;5012633;28;20207;-82
2022/11/21 11:13:57;;;;;;;45.97;24.83;;;6.00;99.90;;;;;;5026308;28;20215;-80
2022/11/21 11:16:25;;;;;;;48.23;24.67;;;6.10;99.90;;;;;;4999413;28;20209;-80
2022/11/21 11:18:58;;;;;;;50.80;25.30;;;6.10;99.90;;;;;;4995911;28;20200;-80
2022/11/21 11:21:27;;;;;;;56.33;28.47;;;6.20;99.90;;;;;;5009167;28;20659;-79
2022/11/21 11:24:05;;;;;;;57.73;28.97;;;6.20;99.90;;;;;;5006748;28;20228;-82
2022/11/21 11:26:32;;;;;;;54.70;30.50;;;6.30;99.90;;;;;;5003715;28;20214;-78
2022/11/21 11:29:09;;;;;;;58.47;29.73;;;6.40;99.90;;;;;;5014662;28;20211;-85
2022/11/21 11:31:43;;;;;;;49.77;28.60;;;6.40;99.90;;;;;;5014760;28;20338;-83
2022/11/21 11:34:14;;;;;;;58.57;31.70;;;6.40;99.90;;;;;;5016688;28;20505;-82
2022/11/21 11:36:54;;;;;;;59.30;31.27;;;6.50;99.90;;;;;;5030913;28;20261;-83
2022/11/21 11:39:36;;;;;;;55.23;31.33;;;6.50;99.90;;;;;;5003368;28;20275;-82
2022/11/21 11:48:29;;;;;;;56.07;30.53;;;6.80;99.90;;;;;;5009822;28;21110;-81
2022/11/21 11:51:02;;;;;;;54.07;32.57;;;6.90;99.90;;;;;;4995271;28;20215;-81
2022/11/21 11:53:34;;;;;;;56.17;32.13;;;7.00;99.90;;;;;;4994067;28;20494;-79
2022/11/21 11:56:07;;;;;;;62.20;34.37;;;7.00;99.90;;;;;;4994893;28;20206;-81
2022/11/21 11:58:40;;;;;;;44.03;29.27;;;7.10;99.90;;;;;;5004708;28;20242;-80
2022/11/21 12:01:11;;;;;;;49.40;28.20;;;7.10;99.90;;;;;;5012612;28;20204;-78
2022/11/21 12:03:43;;;;;;;44.53;28.83;;;7.20;99.90;;;;;;5004540;28;20242;-82
2022/11/21 12:06:18;;;;;;;49.03;29.60;;;7.20;99.90;;;;;;4995411;28;20212;-82
2022/11/21 12:08:52;;;;;;;48.43;29.43;;;7.30;99.90;;;;;;5001803;28;20214;-80
2022/11/21 12:15:47;;;;;;;44.80;28.77;;;7.40;99.90;;;;;;5014798;28;20338;-81
2022/11/21 12:17:07;;;;;;;40.13;25.73;;;7.40;99.90;;;;;;5004400;28;20212;-80
2022/11/21 12:19:36;;;;;;;40.83;25.93;;;7.40;99.90;;;;;;5003951;28;20222;-80
2022/11/21 12:22:06;;;;;;;41.50;25.37;;;7.40;99.90;;;;;;5014253;28;20203;-82
2022/11/21 12:24:34;;;;;;;37.63;23.87;;;7.40;99.90;;;;;;5014175;28;20212;-81
2022/11/21 12:27:10;;;;;;;33.23;22.57;;;7.40;99.90;;;;;;5013073;28;20295;-81
2022/11/21 12:29:51;;;;;;;33.63;22.70;;;7.40;99.90;;;;;;4999712;28;20651;-81
2022/11/21 12:32:32;;;;;;;35.17;21.30;;;7.40;99.90;;;;;;5013836;28;20221;-81
2022/11/21 12:35:24;;;;;;;36.20;22.90;;;7.40;99.90;;;;;;5009681;28;20265;-82
2022/11/21 12:38:02;;;;;;;29.37;20.53;;;7.40;99.90;;;;;;4994571;28;20203;-83
2022/11/21 12:40:42;;;;;;;28.07;19.73;;;7.40;99.90;;;;;;5002760;28;20213;-83
2022/11/21 12:43:19;;;;;;;34.60;20.57;;;7.40;99.90;;;;;;5014966;28;20204;-84
2022/11/21 12:45:51;;;;;;;28.80;20.87;;;7.40;99.90;;;;;;5011558;28;20269;-81
2022/11/21 12:54:46;;;;;;;27.00;18.80;;;7.50;99.90;;;;;;4993451;28;20203;-80
2022/11/21 12:57:15;;;;;;;30.53;19.53;;;7.60;99.90;;;;;;5005974;28;20329;-83
2022/11/21 12:59:54;;;;;;;33.93;21.13;;;7.60;99.90;;;;;;5017574;28;20508;-82
2022/11/21 13:02:32;;;;;;;31.67;20.87;;;7.60;99.90;;;;;;4996728;28;20234;-83
2022/11/21 13:05:01;;;;;;;34.23;21.03;;;7.70;99.90;;;;;;4992951;28;20208;-82
2022/11/21 13:07:30;;;;;;;31.20;21.13;;;7.70;99.90;;;;;;5000837;28;20210;-80
2022/11/21 13:10:01;;;;;;;29.63;20.27;;;7.70;99.90;;;;;;5033543;28;20567;-81
2022/11/21 13:12:38;;;;;;;26.43;18.87;;;7.70;99.90;;;;;;5016674;28;20696;-83
2022/11/21 13:15:16;;;;;;;25.83;18.40;;;7.70;99.90;;;;;;4995172;28;20287;-83
2022/11/21 13:17:49;;;;;;;25.20;18.20;;;7.80;99.90;;;;;;5003593;28;20195;-81